Time;durP1;ratioP1;P1;durP2;ratioP2;P2;SDS_P1;SDS_P2;PMS_P1;PMS_P2;Temp;Humidity;BMP_temperature;BMP_pressure;BME280_temperature;BME280_humidity;BME280_pressure;Samples;Min_cycle;Max_cycle;Signal;HPM_P1;HPM_P2
2021/09/12 00:02:13;;;;;;;23.33;7.97;;;;;;;14.41;48.53;94988.13;4929634;29;20059;-77
2021/09/12 00:04:39;;;;;;;14.55;8.13;;;;;;;14.41;48.57;94982.88;4913241;29;20169;-77
2021/09/12 00:07:04;;;;;;;9.75;6.63;;;;;;;14.37;48.38;94985.22;4916861;29;20102;-77
2021/09/12 00:09:30;;;;;;;12.85;6.68;;;;;;;14.36;48.68;94983.66;4933946;29;20435;-78
2021/09/12 00:11:55;;;;;;;15.52;7.63;;;;;;;14.34;49.20;94985.72;4932589;29;20106;-77
2021/09/12 00:14:21;;;;;;;23.10;7.78;;;;;;;14.29;49.48;94983.06;4900864;29;20063;-77
2021/09/12 00:16:47;;;;;;;22.42;8.48;;;;;;;14.28;49.67;94983.31;4916367;29;20044;-77
2021/09/12 00:19:12;;;;;;;19.27;8.32;;;;;;;14.25;49.43;94976.75;4932615;29;20452;-77
2021/09/12 00:21:37;;;;;;;21.63;9.07;;;;;;;14.21;49.47;94986.13;4930304;29;20035;-77
2021/09/12 00:24:06;;;;;;;15.88;8.23;;;;;;;14.19;49.98;94985.59;4933781;29;20036;-77
2021/09/12 00:26:31;;;;;;;19.70;8.68;;;;;;;14.16;49.84;94993.16;4933640;29;20051;-77
2021/09/12 00:28:57;;;;;;;21.67;7.95;;;;;;;14.15;49.54;94987.13;4933425;29;20404;-77
2021/09/12 00:31:25;;;;;;;12.00;7.20;;;;;;;14.13;49.70;94984.75;4932739;29;20504;-77
2021/09/12 00:33:51;;;;;;;20.10;9.02;;;;;;;14.10;49.65;94981.84;4932888;29;20036;-76
2021/09/12 00:36:16;;;;;;;24.65;12.75;;;;;;;14.06;50.31;94984.19;4933364;29;20083;-77
2021/09/12 00:38:42;;;;;;;25.30;15.95;;;;;;;14.02;50.31;94977.09;4939068;29;20444;-77
2021/09/12 00:41:07;;;;;;;39.42;19.20;;;;;;;13.97;50.54;94984.88;4932014;29;20423;-78
2021/09/12 00:43:32;;;;;;;24.80;17.17;;;;;;;13.97;50.22;94984.88;4921314;29;20048;-77
2021/09/12 00:45:58;;;;;;;20.45;12.80;;;;;;;13.95;50.44;94987.75;4923963;29;20110;-78
2021/09/12 00:48:24;;;;;;;21.50;10.75;;;;;;;13.91;50.50;94988.50;4916397;29;20095;-77
2021/09/12 00:50:49;;;;;;;12.18;8.35;;;;;;;13.90;50.64;94989.53;4923331;29;20043;-77
2021/09/12 00:53:15;;;;;;;19.88;9.02;;;;;;;13.87;50.22;94985.59;4932965;29;20046;-77
2021/09/12 00:55:40;;;;;;;11.40;8.35;;;;;;;13.87;50.26;94990.03;4915661;29;20144;-77
2021/09/12 00:58:06;;;;;;;17.25;7.18;;;;;;;13.86;50.26;94997.09;4933300;29;20039;-77
2021/09/12 01:00:31;;;;;;;11.30;6.28;;;;;;;13.84;50.36;94993.94;4933018;29;20036;-77
2021/09/12 01:02:57;;;;;;;14.10;7.07;;;;;;;13.82;49.92;94991.53;4932679;29;20095;-77
2021/09/12 01:05:26;;;;;;;13.70;6.43;;;;;;;13.80;50.21;94988.38;4929432;29;20035;-77
2021/09/12 01:07:52;;;;;;;11.55;7.28;;;;;;;13.75;50.86;94993.56;4939769;29;20517;-77
2021/09/12 01:10:17;;;;;;;14.13;7.57;;;;;;;13.72;51.25;94988.06;4933041;29;20036;-77
2021/09/12 01:12:43;;;;;;;15.65;7.80;;;;;;;13.70;51.38;94984.91;4915847;29;20452;-77
2021/09/12 01:15:08;;;;;;;11.02;7.55;;;;;;;13.72;51.08;94993.28;4914934;29;20115;-77
2021/09/12 01:17:34;;;;;;;14.40;9.07;;;;;;;13.70;51.15;94993.53;4916086;29;20067;-77
2021/09/12 01:19:59;;;;;;;13.68;8.32;;;;;;;13.67;51.58;94988.81;4932811;29;20415;-77
2021/09/12 01:22:25;;;;;;;17.95;8.93;;;;;;;13.63;51.44;94985.09;4915967;29;20427;-77
2021/09/12 01:24:51;;;;;;;15.27;9.45;;;;;;;13.63;51.24;94985.09;4899694;29;20114;-77
2021/09/12 01:27:16;;;;;;;17.63;10.45;;;;;;;13.57;51.50;94993.13;4932393;29;20046;-77
2021/09/12 01:29:42;;;;;;;19.52;9.27;;;;;;;13.49;51.24;94989.09;4923011;29;20044;-76
2021/09/12 01:32:07;;;;;;;23.75;9.32;;;;;;;13.44;51.10;94996.91;4932497;29;20090;-76
2021/09/12 01:34:33;;;;;;;15.00;8.57;;;;;;;13.40;51.39;94991.38;4932434;29;20040;-76
2021/09/12 01:36:58;;;;;;;19.95;8.90;;;;;;;13.40;51.63;94993.22;4899749;29;20427;-76
2021/09/12 01:39:24;;;;;;;13.75;7.78;;;;;;;13.35;51.67;94990.53;4923207;29;20024;-76
2021/09/12 01:41:49;;;;;;;15.07;8.05;;;;;;;13.32;51.63;94988.41;4932545;29;20036;-76
2021/09/12 01:44:15;;;;;;;24.48;8.95;;;;;;;13.30;51.92;94987.84;4914739;29;20028;-77
2021/09/12 01:46:46;;;;;;;26.65;11.00;;;;;;;13.32;51.88;94988.41;4914675;29;20040;-77
2021/09/12 01:49:11;;;;;;;21.92;10.27;;;;;;;13.32;51.83;94977.94;4938680;29;20134;-77
2021/09/12 01:51:37;;;;;;;15.82;10.18;;;;;;;13.29;52.53;94984.47;4932029;29;20525;-77
2021/09/12 01:54:02;;;;;;;22.70;9.27;;;;;;;13.20;52.54;94981.50;4930972;29;20072;-77
2021/09/12 01:56:28;;;;;;;15.18;8.13;;;;;;;13.21;52.41;94983.06;4913460;29;20042;-77
2021/09/12 01:58:53;;;;;;;14.18;8.23;;;;;;;13.20;52.67;94985.94;4930976;29;20032;-77
2021/09/12 02:01:19;;;;;;;19.00;8.38;;;;;;;13.16;52.55;94987.41;4928878;29;20035;-77
2021/09/12 02:03:45;;;;;;;12.27;7.93;;;;;;;13.14;53.01;94985.03;4932066;29;20035;-77
2021/09/12 02:06:11;;;;;;;24.80;9.43;;;;;;;13.18;52.70;94999.25;4930741;29;20047;-77
2021/09/12 02:08:36;;;;;;;25.02;10.10;;;;;;;13.20;52.70;94996.38;4914999;29;20036;-77
2021/09/12 02:11:02;;;;;;;20.52;8.65;;;;;;;13.17;52.62;94991.59;4938384;29;20047;-77
2021/09/12 02:13:27;;;;;;;16.15;8.10;;;;;;;13.19;52.95;95000.81;4930442;29;20031;-77
2021/09/12 02:15:53;;;;;;;26.58;7.60;;;;;;;13.19;52.61;95000.03;4898699;29;20035;-77
2021/09/12 02:18:18;;;;;;;19.42;7.57;;;;;;;13.16;52.64;94996.03;4932078;29;20431;-77
2021/09/12 02:20:43;;;;;;;24.23;8.23;;;;;;;13.12;52.91;94992.31;4898829;29;20563;-77
2021/09/12 02:23:09;;;;;;;23.23;10.00;;;;;;;13.10;53.40;94991.00;4932131;29;20047;-77
2021/09/12 02:25:34;;;;;;;26.38;9.60;;;;;;;13.09;53.49;94987.59;4899642;29;20027;-79
2021/09/12 02:28:01;;;;;;;38.65;10.70;;;;;;;13.09;53.51;94995.44;4932748;29;20032;-78
2021/09/12 02:30:26;;;;;;;24.70;9.38;;;;;;;13.06;53.48;94995.91;4920272;29;20035;-77
2021/09/12 02:32:52;;;;;;;21.60;8.30;;;;;;;13.08;53.33;94983.41;4932370;29;20107;-77
2021/09/12 02:35:17;;;;;;;21.55;8.82;;;;;;;13.07;53.16;94984.44;4932257;29;20071;-78
2021/09/12 02:37:42;;;;;;;17.92;8.55;;;;;;;13.04;52.76;94979.72;4932488;29;20535;-77
2021/09/12 02:40:08;;;;;;;26.52;9.30;;;;;;;13.01;53.49;94988.00;4932004;29;20503;-77
2021/09/12 02:42:34;;;;;;;24.95;9.07;;;;;;;13.00;53.15;94986.44;4915169;29;20443;-78
2021/09/12 02:44:59;;;;;;;18.95;8.20;;;;;;;12.98;53.06;94978.03;4914307;29;20036;-78
2021/09/12 02:47:25;;;;;;;21.45;8.30;;;;;;;12.98;53.47;94983.28;4914801;29;20044;-78
2021/09/12 02:49:50;;;;;;;20.17;8.10;;;;;;;12.98;53.13;94983.28;4913982;29;20467;-78
2021/09/12 02:52:16;;;;;;;22.10;8.25;;;;;;;12.96;53.27;94985.34;4899024;29;20043;-77
2021/09/12 02:54:41;;;;;;;22.27;7.85;;;;;;;12.92;53.37;94984.25;4914728;29;20413;-78
2021/09/12 02:57:06;;;;;;;15.32;7.53;;;;;;;12.83;53.95;94986.47;4930420;29;20089;-78
2021/09/12 02:59:32;;;;;;;27.15;7.72;;;;;;;12.81;53.78;94982.53;4914950;29;20042;-77
2021/09/12 03:01:58;;;;;;;29.05;8.18;;;;;;;12.80;53.93;94986.97;4914305;29;20044;-77
2021/09/12 03:04:24;;;;;;;14.30;7.88;;;;;;;12.79;54.31;94988.00;4915389;29;20035;-78
2021/09/12 03:07:04;;;;;;;15.05;7.57;;;;;;;12.74;54.39;94992.34;4915216;29;20094;-78
2021/09/12 03:12:11;;;;;;;19.02;6.18;;;;;;;12.78;54.08;94993.44;5035369;23;20057;-78
2021/09/12 03:14:36;;;;;;;14.35;7.03;;;;;;;12.73;53.90;94991.56;4942938;29;20036;-77
2021/09/12 03:17:02;;;;;;;15.82;6.80;;;;;;;12.73;53.92;94993.41;4942066;28;20032;-77
2021/09/12 03:19:27;;;;;;;16.92;7.65;;;;;;;12.65;54.25;94993.78;4943454;29;20131;-77
2021/09/12 03:21:53;;;;;;;20.52;10.40;;;;;;;12.63;54.46;95001.84;4940272;29;20049;-78
2021/09/12 03:24:18;;;;;;;24.98;16.85;;;;;;;12.60;53.89;95005.75;4942423;29;20083;-78
2021/09/12 03:26:44;;;;;;;32.90;18.67;;;;;;;12.58;54.66;95004.41;4940843;28;20483;-78
2021/09/12 03:29:09;;;;;;;24.35;17.13;;;;;;;12.58;54.61;95005.19;4941773;29;20463;-78
2021/09/12 03:31:34;;;;;;;29.65;16.85;;;;;;;12.56;54.60;95003.84;4941654;29;20043;-77
2021/09/12 03:34:00;;;;;;;35.58;16.52;;;;;;;12.54;55.35;95006.69;4940196;29;20035;-78
2021/09/12 03:36:25;;;;;;;23.02;13.10;;;;;;;12.55;54.81;95010.88;4940515;29;20036;-78
2021/09/12 03:38:51;;;;;;;22.60;10.00;;;;;;;12.51;55.03;95012.38;4944893;28;20031;-78
2021/09/12 03:41:16;;;;;;;35.80;7.40;;;;;;;12.51;54.92;95009.75;4948013;29;20042;-78
2021/09/12 03:43:42;;;;;;;33.20;7.20;;;;;;;12.46;54.84;95004.47;4915824;29;20028;-78
2021/09/12 03:46:07;;;;;;;22.17;8.43;;;;;;;12.45;55.01;94999.50;4928717;29;20047;-77
2021/09/12 03:48:32;;;;;;;22.48;9.38;;;;;;;12.38;55.36;94999.69;4927732;29;20050;-77
2021/09/12 03:50:58;;;;;;;17.90;9.90;;;;;;;12.38;55.19;94998.88;4928010;29;20054;-77
2021/09/12 03:53:23;;;;;;;18.35;8.50;;;;;;;12.37;55.39;95000.72;4913683;29;20490;-78
2021/09/12 03:55:49;;;;;;;21.67;9.30;;;;;;;12.38;55.18;94999.69;4946052;29;20043;-78
2021/09/12 03:58:14;;;;;;;33.63;10.95;;;;;;;12.37;55.23;94998.09;4946965;29;20411;-78
2021/09/12 04:00:40;;;;;;;21.08;9.25;;;;;;;12.42;55.28;95000.78;4946508;29;20419;-78
2021/09/12 04:03:05;;;;;;;20.42;9.18;;;;;;;12.40;55.32;95002.84;4945673;29;20039;-78
2021/09/12 04:05:31;;;;;;;30.08;10.95;;;;;;;12.45;55.12;95005.50;4945178;29;20036;-78
2021/09/12 04:07:56;;;;;;;35.45;9.90;;;;;;;12.48;55.17;95014.66;4945602;28;20496;-78
2021/09/12 04:10:22;;;;;;;25.60;11.60;;;;;;;12.49;55.30;95017.03;4945451;29;20523;-78
2021/09/12 04:12:47;;;;;;;33.63;10.57;;;;;;;12.51;55.14;95020.19;4948550;29;20039;-78
2021/09/12 04:15:13;;;;;;;29.05;9.80;;;;;;;12.54;54.92;95018.97;4942485;29;20434;-77
2021/09/12 04:17:38;;;;;;;31.58;11.00;;;;;;;12.52;55.17;95019.16;4943226;29;20471;-77
2021/09/12 04:20:04;;;;;;;20.15;10.88;;;;;;;12.53;55.65;95023.38;4925756;29;20043;-77
2021/09/12 04:22:30;;;;;;;27.85;11.70;;;;;;;12.57;55.27;95023.69;4926780;29;20039;-76
2021/09/12 04:24:55;;;;;;;22.77;11.18;;;;;;;12.59;55.28;95022.41;4926786;29;20428;-76
2021/09/12 04:27:20;;;;;;;25.92;12.52;;;;;;;12.69;55.11;95027.00;4942847;29;20047;-76
2021/09/12 04:29:46;;;;;;;34.90;12.55;;;;;;;12.77;54.71;95020.56;4943538;29;20028;-76
2021/09/12 04:32:11;;;;;;;18.80;10.57;;;;;;;12.85;54.73;95009.72;4943680;29;20052;-76
2021/09/12 04:34:39;;;;;;;23.33;10.80;;;;;;;13.33;53.53;95021.31;4927083;29;20090;-77
2021/09/12 04:37:05;;;;;;;41.20;10.15;;;;;;;14.06;52.14;95022.63;4927063;29;20439;-78
2021/09/12 04:39:30;;;;;;;18.02;8.88;;;;;;;15.02;49.18;95018.09;4944259;29;20027;-77
2021/09/12 04:41:56;;;;;;;17.15;7.95;;;;;;;16.21;46.26;95019.00;4943268;29;20488;-77
2021/09/12 04:44:21;;;;;;;20.52;7.07;;;;;;;17.35;43.84;95016.00;4942709;29;20418;-78
2021/09/12 04:46:47;;;;;;;15.98;6.68;;;;;;;18.53;40.74;95015.03;4926087;29;20414;-77
2021/09/12 04:49:12;;;;;;;16.52;6.90;;;;;;;19.54;38.43;95016.94;4917600;29;20044;-77
2021/09/12 04:51:38;;;;;;;19.23;7.28;;;;;;;20.82;36.15;95017.47;4917546;29;20477;-78
2021/09/12 04:54:03;;;;;;;21.50;6.65;;;;;;;22.09;33.74;95014.25;4926015;29;20399;-78
2021/09/12 04:56:29;;;;;;;21.90;8.50;;;;;;;23.13;31.77;95015.72;4896853;29;20118;-78
2021/09/12 04:58:54;;;;;;;20.95;7.72;;;;;;;23.94;29.87;95023.31;4936237;29;20478;-78
2021/09/12 05:01:20;;;;;;;20.42;7.22;;;;;;;24.84;28.63;95018.13;4944412;29;20031;-78
2021/09/12 05:03:45;;;;;;;23.02;6.13;;;;;;;25.81;26.69;95022.81;4910402;29;20035;-78
2021/09/12 05:06:11;;;;;;;15.60;6.18;;;;;;;26.58;25.78;95006.25;4944823;29;20031;-78
2021/09/12 05:08:36;;;;;;;12.68;5.93;;;;;;;27.13;24.57;95013.06;4943510;29;20529;-77
2021/09/12 05:11:02;;;;;;;17.02;6.90;;;;;;;27.90;23.79;95023.91;4942602;28;20075;-76
2021/09/12 05:13:27;;;;;;;15.40;7.05;;;;;;;28.50;23.09;95024.91;4933154;29;20533;-76
2021/09/12 05:15:53;;;;;;;17.05;6.13;;;;;;;28.77;22.98;95022.53;4925737;29;20091;-76
2021/09/12 05:18:19;;;;;;;10.00;5.65;;;;;;;29.09;21.67;95020.72;4908984;29;20411;-76
2021/09/12 05:20:44;;;;;;;11.10;5.13;;;;;;;29.15;21.73;95030.84;4925184;29;20039;-77
2021/09/12 05:23:09;;;;;;;17.35;6.30;;;;;;;29.34;21.94;95024.03;4909521;29;20042;-76
2021/09/12 05:25:35;;;;;;;10.13;5.65;;;;;;;29.59;21.49;95028.88;4909349;29;20035;-75
2021/09/12 05:28:00;;;;;;;12.13;5.97;;;;;;;29.66;20.83;95025.59;4942796;29;20043;-77
2021/09/12 05:30:26;;;;;;;22.20;6.10;;;;;;;30.00;20.48;95023.28;4942721;29;20047;-78
2021/09/12 05:32:52;;;;;;;11.18;5.72;;;;;;;30.03;20.34;95028.72;4908547;29;20152;-76
2021/09/12 05:35:17;;;;;;;15.98;6.15;;;;;;;29.39;21.12;95032.56;4943111;29;20038;-76
2021/09/12 05:37:44;;;;;;;12.65;5.95;;;;;;;29.14;21.40;95026.63;4942271;29;20046;-76
2021/09/12 05:40:09;;;;;;;17.52;5.90;;;;;;;28.90;21.71;95026.75;4932829;29;20044;-76
2021/09/12 05:42:35;;;;;;;18.88;5.30;;;;;;;28.61;21.67;95025.94;4924915;29;20031;-76
2021/09/12 05:45:00;;;;;;;13.60;4.90;;;;;;;28.58;21.56;95032.00;4924185;29;20114;-77
2021/09/12 05:50:24;;;;;;;11.38;5.68;;;;;;;28.27;22.07;95026.53;4935188;23;20047;-78
2021/09/12 05:52:53;;;;;;;11.85;4.70;;;;;;;28.07;22.49;95029.00;4933087;29;20150;-77
2021/09/12 05:55:18;;;;;;;17.75;5.65;;;;;;;27.87;22.48;95029.16;4924291;29;20040;-77
2021/09/12 06:00:16;;;;;;;12.45;4.85;;;;;;;26.67;23.69;95027.47;5074448;23;20051;-80
2021/09/12 06:02:42;;;;;;;8.30;4.97;;;;;;;26.32;24.48;95024.31;4916565;29;20048;-78
2021/09/12 06:05:08;;;;;;;11.43;4.55;;;;;;;26.09;24.76;95029.19;4933592;29;20610;-78
2021/09/12 06:07:34;;;;;;;8.63;5.03;;;;;;;25.77;25.14;95032.53;4900738;29;20044;-77
2021/09/12 06:09:59;;;;;;;11.10;5.13;;;;;;;25.53;25.06;95028.56;4900726;29;20095;-78
2021/09/12 06:12:25;;;;;;;11.77;4.88;;;;;;;25.26;25.68;95029.00;4933101;29;20039;-78
2021/09/12 06:14:51;;;;;;;8.98;4.63;;;;;;;25.03;26.18;95031.88;4902531;29;20067;-79
2021/09/12 06:17:16;;;;;;;10.18;7.20;;;;;;;24.95;26.33;95034.53;4902654;29;20036;-78
2021/09/12 06:19:41;;;;;;;10.00;5.05;;;;;;;25.01;26.64;95033.28;4921423;23;20046;-78
2021/09/12 06:22:09;;;;;;;9.15;5.03;;;;;;;25.03;26.33;95033.75;4936604;29;20508;-79
2021/09/12 06:24:35;;;;;;;6.28;5.05;;;;;;;25.19;27.17;95032.13;4936353;29;20036;-79
2021/09/12 06:27:00;;;;;;;14.88;5.07;;;;;;;25.35;26.49;95037.72;4902726;29;20551;-78
2021/09/12 06:29:26;;;;;;;6.55;5.18;;;;;;;25.41;26.33;95033.78;4934907;29;20059;-78
2021/09/12 06:31:52;;;;;;;11.10;4.75;;;;;;;25.58;26.26;95033.72;4918254;29;20106;-78
2021/09/12 06:37:04;;;;;;;9.95;5.25;;;;;;;25.51;25.71;95033.41;4928356;23;20135;-86
2021/09/12 06:39:29;;;;;;;11.77;5.13;;;;;;;25.43;26.44;95028.94;4920997;29;20067;-86
2021/09/12 06:41:55;;;;;;;14.27;5.20;;;;;;;25.23;26.05;95033.09;4941187;29;20063;-84
2021/09/12 06:44:20;;;;;;;10.10;4.80;;;;;;;24.99;26.33;95030.94;4892440;29;20055;-85
2021/09/12 06:46:46;;;;;;;7.28;5.03;;;;;;;24.97;26.74;95033.13;4937658;29;20040;-85
2021/09/12 06:49:11;;;;;;;14.30;5.57;;;;;;;24.93;26.68;95037.53;4906275;29;20028;-86
2021/09/12 06:52:00;;;;;;;7.82;5.30;;;;;;;24.84;26.79;95028.78;4938672;29;20067;-82
2021/09/12 06:54:25;;;;;;;13.10;5.43;;;;;;;24.93;27.12;95032.22;4937515;29;20063;-79
2021/09/12 06:56:51;;;;;;;15.85;5.18;;;;;;;25.03;26.98;95037.19;4940175;29;20047;-88
2021/09/12 06:59:16;;;;;;;13.00;5.10;;;;;;;25.02;26.65;95040.97;4890510;29;20415;-84
2021/09/12 07:01:46;;;;;;;14.13;5.72;;;;;;;25.03;26.61;95044.41;4921157;29;20085;-83
2021/09/12 07:04:11;;;;;;;14.25;5.40;;;;;;;24.91;26.72;95031.75;4921023;29;20530;-84
2021/09/12 07:06:37;;;;;;;11.18;5.00;;;;;;;24.87;26.55;95030.78;4921438;29;20036;-82
2021/09/12 07:09:02;;;;;;;11.98;4.82;;;;;;;24.90;27.00;95032.06;4921062;29;20052;-82
2021/09/12 07:11:28;;;;;;;8.57;4.50;;;;;;;25.03;27.21;95031.88;4921178;29;20533;-82
2021/09/12 07:13:53;;;;;;;19.38;5.35;;;;;;;25.21;26.87;95039.81;4935388;29;20043;-80
2021/09/12 07:16:19;;;;;;;19.05;5.20;;;;;;;25.32;26.57;95039.16;4937274;29;20024;-83
2021/09/12 07:18:44;;;;;;;16.77;5.28;;;;;;;25.40;26.16;95045.56;4957703;23;20047;-83
2021/09/12 07:21:12;;;;;;;10.85;5.28;;;;;;;25.49;25.89;95032.97;4958196;29;20040;-80
2021/09/12 07:23:38;;;;;;;9.75;4.50;;;;;;;25.64;25.84;95028.97;4946323;29;20036;-84
2021/09/12 07:26:03;;;;;;;16.00;4.50;;;;;;;25.73;25.59;95037.75;4959546;29;20023;-84
2021/09/12 07:28:29;;;;;;;8.70;4.25;;;;;;;25.72;25.08;95042.28;4956132;29;20039;-85
2021/09/12 07:30:54;;;;;;;8.45;4.57;;;;;;;25.74;25.04;95031.31;4952945;29;20036;-86
2021/09/12 07:33:20;;;;;;;15.85;4.30;;;;;;;25.77;25.24;95035.22;4947962;29;20032;-84
2021/09/12 07:35:45;;;;;;;8.50;4.55;;;;;;;25.77;25.14;95027.22;4947483;29;20039;-84
2021/09/12 07:38:11;;;;;;;21.48;4.47;;;;;;;25.79;25.55;95035.66;4913629;29;20034;-83
2021/09/12 07:40:36;;;;;;;5.50;4.40;;;;;;;25.83;25.69;95025.91;4944138;29;20040;-83
2021/09/12 07:43:02;;;;;;;12.13;4.82;;;;;;;25.83;25.46;95031.25;4955001;29;20042;-83
2021/09/12 07:45:28;;;;;;;16.10;5.10;;;;;;;25.87;25.59;95026.81;4943517;29;20043;-84
2021/09/12 07:47:53;;;;;;;9.98;4.55;;;;;;;25.75;25.36;95024.88;4923450;29;20028;-85
2021/09/12 07:50:19;;;;;;;8.40;4.13;;;;;;;25.73;25.50;95025.22;4919327;29;20380;-86
2021/09/12 07:52:44;;;;;;;10.57;4.60;;;;;;;25.80;25.50;95018.56;4931983;29;20118;-86
2021/09/12 07:55:11;;;;;;;9.85;4.25;;;;;;;25.86;25.53;95018.06;4918264;29;20038;-86
2021/09/12 07:57:36;;;;;;;9.05;4.93;;;;;;;25.90;25.31;95015.53;4915489;29;20051;-86
2021/09/12 08:00:04;;;;;;;17.85;5.05;;;;;;;25.76;25.64;95017.66;4945538;29;20200;-86
2021/09/12 08:02:29;;;;;;;19.60;5.15;;;;;;;25.76;25.63;95017.66;4949389;29;20043;-85
2021/09/12 08:04:54;;;;;;;16.13;5.57;;;;;;;25.70;25.86;95006.41;4932475;29;20042;-85
2021/09/12 08:07:20;;;;;;;9.65;4.43;;;;;;;25.72;25.22;95007.66;4948560;29;20118;-85
2021/09/12 08:09:45;;;;;;;62.42;5.60;;;;;;;25.71;24.90;95008.78;4938596;29;20407;-85
2021/09/12 08:12:11;;;;;;;5.72;4.53;;;;;;;25.72;25.50;95005.00;4906721;29;20416;-85
2021/09/12 08:14:37;;;;;;;9.23;4.60;;;;;;;25.77;25.83;95005.91;4955966;29;20419;-84
2021/09/12 08:17:03;;;;;;;8.35;4.68;;;;;;;25.85;25.23;94999.72;4949990;29;20507;-85
2021/09/12 08:19:28;;;;;;;12.07;4.93;;;;;;;25.92;25.05;95008.00;4916662;29;20054;-86
2021/09/12 08:21:54;;;;;;;11.30;5.03;;;;;;;25.88;24.93;95007.88;4947072;29;20071;-84
2021/09/12 08:24:19;;;;;;;22.08;5.35;;;;;;;25.84;24.88;95006.16;4951071;28;20050;-87
2021/09/12 08:26:45;;;;;;;12.80;5.53;;;;;;;25.79;25.24;94998.38;4939541;29;20027;-74
2021/09/12 08:29:10;;;;;;;11.75;5.68;;;;;;;25.81;25.21;95002.25;4943229;29;20426;-74
2021/09/12 08:31:35;;;;;;;8.95;5.10;;;;;;;25.78;25.80;95002.91;4942889;29;20047;-74
2021/09/12 08:34:01;;;;;;;13.98;5.45;;;;;;;25.77;25.76;94995.25;4943155;29;20045;-77
2021/09/12 08:36:26;;;;;;;10.85;5.35;;;;;;;25.76;25.74;94996.34;4949274;29;20476;-75
2021/09/12 08:38:52;;;;;;;13.23;5.55;;;;;;;25.71;25.86;94987.47;4925701;29;20110;-75
2021/09/12 08:41:18;;;;;;;14.35;6.57;;;;;;;25.52;27.14;94991.59;4901032;29;20043;-74
2021/09/12 08:43:44;;;;;;;15.80;5.78;;;;;;;25.53;26.23;94985.16;4943281;29;20063;-74
2021/09/12 08:46:09;;;;;;;14.57;5.80;;;;;;;25.49;26.48;94985.03;4933115;29;20039;-74
2021/09/12 08:48:36;;;;;;;11.50;5.43;;;;;;;25.46;26.38;94985.69;4927849;29;20076;-75
2021/09/12 08:51:01;;;;;;;17.98;5.75;;;;;;;25.41;25.77;94983.22;4906405;29;20040;-74
2021/09/12 08:53:27;;;;;;;18.92;6.65;;;;;;;25.37;26.08;94976.94;4895485;29;20480;-75
2021/09/12 08:55:52;;;;;;;15.82;5.80;;;;;;;25.31;26.07;94972.91;4887772;29;20039;-74
2021/09/12 08:58:17;;;;;;;25.15;6.07;;;;;;;25.33;26.37;94970.72;4887854;29;20040;-74
2021/09/12 09:00:44;;;;;;;13.73;5.70;;;;;;;25.35;26.59;94958.63;4888745;29;20040;-74
2021/09/12 09:03:09;;;;;;;13.13;6.13;;;;;;;25.39;26.71;94964.91;4895642;29;20051;-75
2021/09/12 09:05:37;;;;;;;15.95;5.97;;;;;;;25.40;27.21;94961.13;4910744;29;20036;-74
2021/09/12 09:08:10;;;;;;;15.27;6.25;;;;;;;25.44;26.98;94961.28;4872059;29;20047;-74
2021/09/12 09:10:46;;;;;;;11.10;6.07;;;;;;;25.47;26.98;94957.19;4887700;29;20072;-74
2021/09/12 09:13:25;;;;;;;12.52;5.65;;;;;;;25.49;27.39;94947.75;4904756;29;20431;-74
2021/09/12 09:15:51;;;;;;;17.95;6.20;;;;;;;25.55;27.44;94949.16;4887182;29;20468;-74
2021/09/12 09:18:16;;;;;;;23.08;6.00;;;;;;;25.53;26.71;94948.66;4888062;29;20048;-74
2021/09/12 09:20:42;;;;;;;14.13;6.07;;;;;;;25.41;26.64;94951.25;4864464;29;20036;-74
2021/09/12 09:23:07;;;;;;;11.52;5.38;;;;;;;25.41;26.21;94945.94;4895384;29;20037;-74
2021/09/12 09:25:33;;;;;;;12.63;5.97;;;;;;;25.44;26.43;94942.63;4910600;29;20044;-74
2021/09/12 09:28:00;;;;;;;11.57;5.40;;;;;;;25.47;27.52;94943.88;4873088;29;20044;-74
2021/09/12 09:30:35;;;;;;;12.80;5.47;;;;;;;25.50;27.81;94941.31;4904463;29;20086;-73
2021/09/12 09:33:28;;;;;;;15.07;5.40;;;;;;;25.49;26.52;94931.78;4904787;29;20127;-74
2021/09/12 09:36:06;;;;;;;10.98;4.85;;;;;;;25.52;26.96;94935.69;4858174;29;20131;-73
2021/09/12 09:38:33;;;;;;;16.15;4.90;;;;;;;25.55;26.95;94922.53;4904913;29;20048;-77
2021/09/12 09:41:08;;;;;;;8.23;4.65;;;;;;;25.56;26.29;94928.63;4894952;29;20106;-74
2021/09/12 09:43:43;;;;;;;11.07;5.05;;;;;;;25.54;26.06;94928.16;4889021;29;20179;-76
2021/09/12 09:46:29;;;;;;;21.60;4.80;;;;;;;25.43;25.80;94930.41;4904137;29;20139;-75
2021/09/12 09:48:55;;;;;;;19.98;4.82;;;;;;;25.48;26.55;94924.91;4881221;29;20048;-80
2021/09/12 09:51:22;;;;;;;18.08;4.22;;;;;;;25.43;25.71;94928.53;4873987;29;20036;-72
2021/09/12 09:53:47;;;;;;;18.27;4.88;;;;;;;25.44;26.08;94918.66;4903141;29;20492;-72
2021/09/12 09:56:13;;;;;;;7.30;4.60;;;;;;;25.47;25.92;94923.34;4885043;29;20041;-73
2021/09/12 09:58:38;;;;;;;8.20;4.13;;;;;;;25.33;25.44;94923.56;4911922;29;20500;-79
2021/09/12 10:01:04;;;;;;;13.88;4.35;;;;;;;25.19;25.86;94922.25;4874977;29;20044;-79
2021/09/12 10:03:30;;;;;;;8.32;4.32;;;;;;;25.22;25.69;94918.94;4891313;29;20595;-79
2021/09/12 10:05:56;;;;;;;9.95;4.53;;;;;;;25.27;25.86;94908.91;4909328;29;20100;-79
2021/09/12 10:08:46;;;;;;;12.10;4.18;;;;;;;25.33;26.09;94912.16;4891424;29;20046;-78
2021/09/12 10:11:12;;;;;;;6.93;3.92;;;;;;;25.14;25.51;94905.38;4908236;29;20512;-78
2021/09/12 10:13:38;;;;;;;14.00;4.32;;;;;;;24.98;26.13;94904.31;4898532;29;20036;-78
2021/09/12 10:16:06;;;;;;;12.18;4.70;;;;;;;25.09;26.23;94902.91;4891042;29;20069;-78
2021/09/12 10:18:31;;;;;;;15.57;4.72;;;;;;;25.10;25.95;94903.69;4890943;29;20032;-78
2021/09/12 10:24:19;;;;;;;10.20;4.35;;;;;;;24.97;25.77;94894.78;4897115;29;20051;-78
2021/09/12 10:26:45;;;;;;;10.43;4.22;;;;;;;24.80;25.68;94900.97;4905660;29;20040;-78
2021/09/12 10:29:54;;;;;;;11.88;4.30;;;;;;;24.80;25.85;94895.63;4905673;29;20123;-78
2021/09/12 10:32:33;;;;;;;6.28;4.05;;;;;;;24.61;26.04;94887.28;4907293;29;20056;-78
2021/09/12 10:35:23;;;;;;;7.13;4.40;;;;;;;24.65;25.90;94884.75;4912814;29;20059;-79
2021/09/12 10:38:01;;;;;;;16.25;4.60;;;;;;;24.66;26.32;94884.44;4906053;29;20048;-78
2021/09/12 10:40:45;;;;;;;10.63;4.57;;;;;;;24.64;26.00;94885.84;4890604;29;20068;-78
2021/09/12 10:43:36;;;;;;;11.50;4.38;;;;;;;24.67;25.94;94874.56;4896824;29;20040;-78
2021/09/12 10:46:04;;;;;;;17.42;4.10;;;;;;;24.79;25.98;94883.44;4905022;29;20091;-79
2021/09/12 10:48:41;;;;;;;13.57;4.15;;;;;;;24.85;27.08;94886.69;4905185;29;20036;-79
2021/09/12 10:51:09;;;;;;;8.43;4.43;;;;;;;24.85;25.87;94870.72;4893662;29;20107;-75
2021/09/12 10:53:47;;;;;;;16.88;4.60;;;;;;;24.73;26.33;94876.75;4902759;29;20493;-76
2021/09/12 10:56:15;;;;;;;18.05;4.90;;;;;;;24.71;26.44;94878.16;4902781;29;20075;-76
2021/09/12 10:58:40;;;;;;;11.50;4.32;;;;;;;24.58;26.52;94876.50;4893562;29;20044;-76
2021/09/12 11:01:07;;;;;;;15.82;4.55;;;;;;;24.53;26.57;94878.22;4885530;29;20415;-76
2021/09/12 11:03:33;;;;;;;16.67;4.82;;;;;;;24.60;26.32;94868.97;4886164;29;20431;-76
2021/09/12 11:06:00;;;;;;;17.30;5.10;;;;;;;24.62;26.30;94867.56;4902262;29;20036;-75
2021/09/12 11:08:39;;;;;;;7.13;4.13;;;;;;;24.63;26.78;94876.31;4878088;29;20511;-76
2021/09/12 11:11:05;;;;;;;19.02;4.80;;;;;;;24.77;26.91;94863.59;4900601;29;20024;-78
2021/09/12 11:13:31;;;;;;;10.93;4.70;;;;;;;24.79;26.14;94864.81;4887477;29;20048;-78
2021/09/12 11:16:06;;;;;;;6.55;4.05;;;;;;;24.83;25.82;94864.97;4887289;29;20036;-73
2021/09/12 11:18:46;;;;;;;8.70;3.75;;;;;;;24.84;25.58;94854.00;4902670;29;21019;-73
2021/09/12 11:21:41;;;;;;;7.55;4.30;;;;;;;24.88;25.36;94854.13;4902557;29;20115;-73
2021/09/12 11:24:08;;;;;;;9.48;4.25;;;;;;;24.91;25.53;94842.88;4885991;29;20133;-73
2021/09/12 11:26:37;;;;;;;8.55;4.38;;;;;;;24.99;25.22;94839.38;4908990;29;20032;-70
2021/09/12 11:29:05;;;;;;;6.72;3.45;;;;;;;25.04;25.74;94841.88;4902367;29;20049;-72
2021/09/12 11:31:31;;;;;;;9.95;3.67;;;;;;;25.10;24.88;94845.13;4886201;29;20024;-72
2021/09/12 11:33:56;;;;;;;7.57;3.60;;;;;;;25.16;24.74;94838.50;4902279;29;20084;-73
2021/09/12 11:36:23;;;;;;;7.88;3.55;;;;;;;25.25;24.25;94838.47;4901496;29;20031;-73
2021/09/12 11:38:55;;;;;;;4.72;3.17;;;;;;;25.34;24.31;94837.28;4902787;29;20124;-72
2021/09/12 11:41:23;;;;;;;5.38;3.60;;;;;;;25.26;24.44;94838.16;4902868;29;20044;-72